createdAt,value
2022-11-02T00:02:00.252Z,15.10
2022-11-02T00:04:28.598Z,15.00
2022-11-02T00:06:56.831Z,16.10
2022-11-02T00:09:25.002Z,15.20
2022-11-02T00:11:53.217Z,15.20
2022-11-02T00:14:21.512Z,15.40
2022-11-02T00:16:49.834Z,14.60
2022-11-02T00:19:19.674Z,14.90
2022-11-02T00:21:47.977Z,15.70
2022-11-02T00:24:16.514Z,16.00
2022-11-02T00:26:44.687Z,15.50
2022-11-02T00:29:12.897Z,15.90
2022-11-02T00:31:41.091Z,15.40
2022-11-02T00:34:09.263Z,15.30
2022-11-02T00:36:38.859Z,15.40
2022-11-02T00:39:07.022Z,15.50
2022-11-02T00:41:35.242Z,15.10
2022-11-02T00:44:03.456Z,15.90
2022-11-02T00:46:31.620Z,15.60
2022-11-02T00:48:59.730Z,16.20
2022-11-02T00:51:27.874Z,16.10
2022-11-02T00:53:57.459Z,16.00
2022-11-02T00:56:25.672Z,15.30
2022-11-02T00:58:53.985Z,15.50
2022-11-02T01:01:22.249Z,15.30
2022-11-02T01:03:50.495Z,15.20
2022-11-02T01:06:18.672Z,15.60
2022-11-02T01:08:46.834Z,16.30
2022-11-02T01:11:21.270Z,15.80
2022-11-02T01:13:52.167Z,15.50
2022-11-02T01:16:21.160Z,15.50
2022-11-02T01:18:53.999Z,15.70
2022-11-02T01:21:22.795Z,15.70
2022-11-02T01:23:51.151Z,16.10
2022-11-02T01:26:20.953Z,15.40
2022-11-02T01:28:49.184Z,15.40
2022-11-02T01:31:17.401Z,15.50
2022-11-02T01:33:46.535Z,15.70
2022-11-02T01:36:16.642Z,15.40
2022-11-02T01:38:44.831Z,15.80
2022-11-02T01:41:14.070Z,16.00
2022-11-02T01:43:46.124Z,15.60
2022-11-02T01:46:20.523Z,15.80
2022-11-02T01:48:54.645Z,16.50
2022-11-02T01:51:27.999Z,16.10
2022-11-02T01:54:00.449Z,16.60
2022-11-02T01:56:34.009Z,17.20
2022-11-02T01:59:09.342Z,16.10
2022-11-02T02:01:37.654Z,16.20
2022-11-02T02:04:06.871Z,17.10
2022-11-02T02:06:35.525Z,16.10
2022-11-02T02:09:06.768Z,15.60
2022-11-02T02:11:37.585Z,15.50
2022-11-02T02:14:10.199Z,15.80
2022-11-02T02:17:18.371Z,16.20
2022-11-02T02:19:57.713Z,16.40
2022-11-02T02:23:20.555Z,16.30
2022-11-02T02:26:37.632Z,15.60
2022-11-02T02:29:12.431Z,15.50
2022-11-02T02:31:49.111Z,15.70
2022-11-02T02:34:21.809Z,15.90
2022-11-02T02:36:54.084Z,16.50
2022-11-02T02:39:31.272Z,16.90
2022-11-02T02:42:07.125Z,17.40
2022-11-02T02:44:40.925Z,16.10
2022-11-02T02:47:15.120Z,15.70
2022-11-02T02:50:00.253Z,15.30
2022-11-02T02:52:31.522Z,15.80
2022-11-02T02:55:02.070Z,15.70
2022-11-02T02:57:33.482Z,16.20
2022-11-02T03:00:05.055Z,16.20
2022-11-02T03:02:38.110Z,16.20
2022-11-02T03:05:26.316Z,15.50
2022-11-02T03:07:55.551Z,15.70
2022-11-02T03:10:33.671Z,15.30
2022-11-02T03:13:30.932Z,15.80
2022-11-02T03:16:11.293Z,15.90
2022-11-02T03:18:49.365Z,15.80
2022-11-02T03:21:29.143Z,15.60
2022-11-02T03:24:05.030Z,15.60
2022-11-02T03:26:40.564Z,16.20
2022-11-02T03:29:14.508Z,16.10
2022-11-02T03:31:51.670Z,16.40
2022-11-02T03:34:29.162Z,16.60
2022-11-02T03:39:47.130Z,16.30
2022-11-02T03:42:19.909Z,15.70
2022-11-02T03:44:51.859Z,16.20
2022-11-02T03:47:23.580Z,16.00
2022-11-02T03:49:53.620Z,16.40
2022-11-02T03:52:26.834Z,16.40
2022-11-02T03:55:04.825Z,17.00
2022-11-02T03:57:40.370Z,16.10
2022-11-02T04:00:11.644Z,15.60
2022-11-02T04:02:45.236Z,16.30
2022-11-02T04:05:13.524Z,16.30
2022-11-02T04:08:04.423Z,16.10
2022-11-02T04:10:32.912Z,15.40
2022-11-02T04:13:18.541Z,16.70
2022-11-02T04:15:46.983Z,16.10
2022-11-02T04:18:34.200Z,16.20
2022-11-02T04:21:02.363Z,16.60
2022-11-02T04:23:48.257Z,15.50
2022-11-02T04:26:16.442Z,15.60
2022-11-02T04:28:44.609Z,16.30
2022-11-02T04:31:13.146Z,15.80
2022-11-02T04:33:41.684Z,16.50
2022-11-02T04:36:10.771Z,15.30
2022-11-02T04:38:40.671Z,15.60
2022-11-02T04:41:27.869Z,15.70
2022-11-02T04:43:56.304Z,15.40
2022-11-02T04:46:27.093Z,15.40
2022-11-02T04:48:57.069Z,16.10
2022-11-02T04:51:27.806Z,15.80
2022-11-02T04:53:57.505Z,16.00
2022-11-02T04:56:26.528Z,16.20
2022-11-02T04:58:57.140Z,16.60
2022-11-02T05:01:27.477Z,16.10
2022-11-02T05:03:58.015Z,15.70
2022-11-02T05:06:26.880Z,15.40
2022-11-02T05:08:55.048Z,15.70
2022-11-02T05:11:23.481Z,16.50
2022-11-02T05:13:51.652Z,16.30
2022-11-02T05:16:19.870Z,15.90
2022-11-02T05:18:49.201Z,16.10
2022-11-02T05:21:18.736Z,15.40
2022-11-02T05:23:46.875Z,16.20
2022-11-02T05:26:15.071Z,16.40
2022-11-02T05:28:43.217Z,15.90
2022-11-02T05:31:11.399Z,15.60
2022-11-02T05:33:39.552Z,15.60
2022-11-02T05:36:08.316Z,15.00
2022-11-02T05:38:40.779Z,15.90
2022-11-02T05:41:10.122Z,15.50
2022-11-02T05:43:38.418Z,15.90
2022-11-02T05:46:06.779Z,15.30
2022-11-02T05:48:35.207Z,15.50
2022-11-02T05:51:05.282Z,15.70
2022-11-02T05:53:34.224Z,15.00
2022-11-02T05:56:06.003Z,15.10
2022-11-02T05:58:35.681Z,15.70
2022-11-02T06:01:06.927Z,15.10
2022-11-02T06:03:36.137Z,15.70
2022-11-02T06:06:07.428Z,14.70
2022-11-02T06:08:36.573Z,15.30
2022-11-02T06:11:11.650Z,15.00
2022-11-02T06:13:40.740Z,15.80
2022-11-02T06:16:12.139Z,15.60
2022-11-02T06:18:41.144Z,14.70
2022-11-02T06:21:09.637Z,15.10
2022-11-02T06:23:39.083Z,15.40
2022-11-02T06:26:08.627Z,15.40
2022-11-02T06:28:36.753Z,15.40
2022-11-02T06:31:05.046Z,15.60
2022-11-02T06:33:33.301Z,15.90
2022-11-02T06:36:01.651Z,16.30
2022-11-02T06:38:29.831Z,16.20
2022-11-02T06:41:00.246Z,15.00
2022-11-02T06:43:29.771Z,14.80
2022-11-02T06:45:59.263Z,15.50
2022-11-02T06:48:34.610Z,14.90
2022-11-02T06:51:04.410Z,15.00
2022-11-02T06:53:33.618Z,15.60
2022-11-02T06:56:01.877Z,15.60
2022-11-02T06:58:31.819Z,15.80
2022-11-02T07:01:02.136Z,15.30
2022-11-02T07:03:31.682Z,14.50
2022-11-02T07:06:00.935Z,15.00
2022-11-02T07:08:29.902Z,15.30
2022-11-02T07:10:58.817Z,15.20
2022-11-02T07:13:27.225Z,15.00
2022-11-02T07:15:57.009Z,15.20
2022-11-02T07:18:25.312Z,15.20
2022-11-02T07:20:53.505Z,15.30
2022-11-02T07:23:24.166Z,14.60
2022-11-02T07:25:52.998Z,15.60
2022-11-02T07:28:21.763Z,15.00
2022-11-02T07:30:50.200Z,15.30
2022-11-02T07:33:19.792Z,15.40
2022-11-02T07:35:48.030Z,15.50
2022-11-02T07:38:16.266Z,15.60
2022-11-02T07:40:44.462Z,15.40
2022-11-02T07:43:12.611Z,15.30
2022-11-02T07:45:40.839Z,15.30
2022-11-02T07:48:09.018Z,14.50
2022-11-02T07:50:38.581Z,15.50
2022-11-02T07:53:07.138Z,15.80
2022-11-02T07:55:35.759Z,15.90
2022-11-02T07:58:07.919Z,15.80
2022-11-02T08:00:38.896Z,15.50
2022-11-02T08:03:09.962Z,15.40
2022-11-02T08:05:42.776Z,16.00
2022-11-02T08:08:15.123Z,15.70
2022-11-02T08:10:44.916Z,15.20
2022-11-02T08:13:16.603Z,15.70
2022-11-02T08:15:44.898Z,16.00
2022-11-02T08:18:16.382Z,16.40
2022-11-02T08:20:47.384Z,16.40
2022-11-02T08:23:17.403Z,16.60
2022-11-02T08:25:49.715Z,16.20
2022-11-02T08:28:22.147Z,16.60
2022-11-02T08:30:50.429Z,16.10
2022-11-02T08:33:20.676Z,16.20
2022-11-02T08:35:50.869Z,15.90
2022-11-02T08:38:22.394Z,15.30
2022-11-02T08:40:50.885Z,15.50
2022-11-02T08:43:19.033Z,15.10
2022-11-02T08:46:13.685Z,15.30
2022-11-02T08:48:35.391Z,15.60
2022-11-02T08:51:05.672Z,15.70
2022-11-02T08:53:34.020Z,15.90
2022-11-02T08:56:02.285Z,15.10
2022-11-02T08:58:30.515Z,15.30
2022-11-02T09:00:58.754Z,15.30
2022-11-02T09:03:28.272Z,15.90
2022-11-02T09:06:02.515Z,15.50
2022-11-02T09:08:33.210Z,15.20
2022-11-02T09:11:04.418Z,16.00
2022-11-02T09:13:32.979Z,16.20
2022-11-02T09:16:02.719Z,15.80
2022-11-02T09:18:31.488Z,15.20
2022-11-02T09:21:03.415Z,15.60
2022-11-02T09:23:33.567Z,16.10
2022-11-02T09:26:01.834Z,16.10
2022-11-02T09:28:30.055Z,16.00
2022-11-02T09:30:58.385Z,15.60
2022-11-02T09:33:26.573Z,15.30
2022-11-02T09:35:54.947Z,15.60
2022-11-02T09:38:23.129Z,16.50
2022-11-02T09:41:09.799Z,16.90
2022-11-02T09:43:51.216Z,16.10
2022-11-02T09:46:25.169Z,15.70
2022-11-02T09:48:57.927Z,15.90
2022-11-02T09:51:30.659Z,15.80
2022-11-02T09:54:13.039Z,16.00
2022-11-02T09:56:47.564Z,15.80
2022-11-02T09:59:18.807Z,16.20
2022-11-02T10:02:02.448Z,15.60
2022-11-02T10:05:15.698Z,15.40
2022-11-02T10:08:15.597Z,16.00
2022-11-02T10:10:57.487Z,16.30
2022-11-02T10:13:37.691Z,16.80
2022-11-02T10:16:12.232Z,16.70
2022-11-02T10:18:43.072Z,16.90
2022-11-02T10:21:17.733Z,15.80
2022-11-02T10:23:52.861Z,15.90
2022-11-02T10:26:33.155Z,16.00
2022-11-02T10:29:17.111Z,15.40
2022-11-02T10:31:45.678Z,15.80
2022-11-02T10:34:24.750Z,16.10
2022-11-02T10:37:10.805Z,16.00
2022-11-02T10:39:49.024Z,15.60
2022-11-02T10:42:53.745Z,15.80
2022-11-02T10:45:57.879Z,16.20
2022-11-02T10:48:40.113Z,16.60
2022-11-02T10:51:12.369Z,15.80
2022-11-02T10:53:44.937Z,16.60
2022-11-02T10:56:18.849Z,16.50
2022-11-02T10:58:59.046Z,16.00
2022-11-02T11:01:27.920Z,16.20
2022-11-02T11:04:00.171Z,15.90
2022-11-02T11:06:32.453Z,16.40
2022-11-02T11:09:05.115Z,16.50
2022-11-02T11:11:36.983Z,16.00
2022-11-02T11:20:07.219Z,15.90
2022-11-02T11:22:39.967Z,16.30
2022-11-02T11:25:27.545Z,16.10
2022-11-02T11:27:58.132Z,16.70
2022-11-02T11:30:58.518Z,16.20
2022-11-02T11:33:23.048Z,16.70
2022-11-02T11:35:52.818Z,16.60
2022-11-02T11:38:24.506Z,16.60
2022-11-02T11:40:57.702Z,16.30
2022-11-02T11:43:28.436Z,16.30
2022-11-02T11:46:05.972Z,15.90
2022-11-02T11:48:40.088Z,15.70
2022-11-02T11:51:27.557Z,15.90
2022-11-02T11:54:26.384Z,16.60
2022-11-02T11:56:57.448Z,16.10
2022-11-02T11:59:29.679Z,16.50
2022-11-02T12:02:02.458Z,16.90
2022-11-02T12:04:34.949Z,17.20
2022-11-02T12:07:39.867Z,16.40
2022-11-02T12:10:17.958Z,16.40
2022-11-02T12:13:11.632Z,16.30
2022-11-02T12:15:58.602Z,16.90
2022-11-02T12:18:49.067Z,16.60
2022-11-02T12:21:39.935Z,16.50
2022-11-02T12:24:40.424Z,16.30
2022-11-02T12:27:25.351Z,16.10
2022-11-02T12:30:10.081Z,16.60
2022-11-02T12:33:15.163Z,16.40
2022-11-02T12:36:05.276Z,16.40
2022-11-02T12:38:52.272Z,16.30
2022-11-02T12:41:43.851Z,16.60
2022-11-02T12:44:29.121Z,16.90
2022-11-02T12:47:05.816Z,16.90
2022-11-02T12:49:43.075Z,16.40
2022-11-02T12:52:30.573Z,16.50
2022-11-02T12:55:02.924Z,16.50
2022-11-02T12:57:36.961Z,16.40
2022-11-02T13:00:09.726Z,16.50
2022-11-02T13:02:55.129Z,16.50
2022-11-02T13:05:28.648Z,16.20
2022-11-02T13:08:16.047Z,16.40
2022-11-02T13:10:53.353Z,16.00
2022-11-02T13:13:30.907Z,16.80
2022-11-02T13:16:00.820Z,16.70
2022-11-02T13:18:34.383Z,16.80
2022-11-02T13:21:05.411Z,17.00
2022-11-02T13:23:41.556Z,17.10
2022-11-02T13:26:22.410Z,17.20
2022-11-02T13:28:56.688Z,16.80
2022-11-02T13:31:34.821Z,16.70
2022-11-02T13:34:07.930Z,17.00
2022-11-02T13:36:39.238Z,17.20
2022-11-02T13:39:17.383Z,17.40
2022-11-02T13:42:25.692Z,17.10
2022-11-02T13:45:46.908Z,17.60
2022-11-02T13:48:51.810Z,17.90
2022-11-02T13:51:31.116Z,17.50
2022-11-02T13:54:04.071Z,16.60
2022-11-02T13:56:37.893Z,16.50
2022-11-02T13:59:10.192Z,16.40
2022-11-02T14:01:42.098Z,16.90
2022-11-02T14:04:13.749Z,17.00
2022-11-02T14:06:52.615Z,17.60
2022-11-02T14:09:28.995Z,17.70
2022-11-02T14:12:40.376Z,18.00
2022-11-02T14:15:53.516Z,17.80
2022-11-02T14:18:32.619Z,17.10
2022-11-02T14:21:21.923Z,16.80
2022-11-02T14:23:50.189Z,17.00
2022-11-02T14:26:53.528Z,17.10
2022-11-02T14:29:53.482Z,17.20
2022-11-02T14:32:49.727Z,17.20
2022-11-02T14:35:34.183Z,17.10
2022-11-02T14:38:45.136Z,17.60
2022-11-02T14:41:46.037Z,17.50
2022-11-02T14:44:50.205Z,16.60
2022-11-02T14:47:20.484Z,16.50
2022-11-02T14:49:54.638Z,16.60
2022-11-02T14:52:28.808Z,16.80
2022-11-02T14:55:20.584Z,16.90
2022-11-02T14:57:55.249Z,16.90
2022-11-02T15:00:28.919Z,16.90
2022-11-02T15:02:59.645Z,17.10
2022-11-02T15:05:32.430Z,17.30
2022-11-02T15:08:04.021Z,17.30
2022-11-02T15:10:47.188Z,16.70
2022-11-02T15:13:48.615Z,17.10
2022-11-02T15:16:26.667Z,17.10
2022-11-02T15:19:16.201Z,17.80
2022-11-02T15:21:46.161Z,17.80
2022-11-02T15:24:29.581Z,17.40
2022-11-02T15:27:00.578Z,17.60
2022-11-02T15:29:44.929Z,17.70
2022-11-02T15:32:22.644Z,17.50
2022-11-02T15:34:54.363Z,17.80
2022-11-02T15:37:26.534Z,17.50
2022-11-02T15:39:57.336Z,17.70
2022-11-02T15:42:39.401Z,18.30
2022-11-02T15:45:50.518Z,18.10
2022-11-02T15:48:40.054Z,18.50
2022-11-02T15:51:21.860Z,18.20
2022-11-02T15:54:10.605Z,18.40
2022-11-02T15:56:52.932Z,18.50
2022-11-02T15:59:46.722Z,18.40
2022-11-02T16:02:27.951Z,17.90
2022-11-02T16:05:00.188Z,18.30
2022-11-02T16:07:38.405Z,18.40
2022-11-02T16:10:26.726Z,18.60
2022-11-02T16:12:59.701Z,18.40
2022-11-02T16:15:28.746Z,18.50
2022-11-02T16:17:58.402Z,18.60
2022-11-02T16:20:29.669Z,18.70
2022-11-02T16:23:00.991Z,18.60
2022-11-02T16:25:39.924Z,18.70
2022-11-02T16:28:19.833Z,18.70
2022-11-02T16:31:12.513Z,18.80
2022-11-02T16:33:45.430Z,18.50
2022-11-02T16:36:17.643Z,18.60
2022-11-02T16:38:53.446Z,18.50
2022-11-02T16:41:25.664Z,18.30
2022-11-02T16:43:54.327Z,18.10
2022-11-02T16:46:31.870Z,17.70
2022-11-02T16:49:16.072Z,17.80
2022-11-02T16:51:51.667Z,18.20
2022-11-02T16:54:41.241Z,18.40
2022-11-02T16:57:20.056Z,18.60
2022-11-02T16:59:52.951Z,18.70
2022-11-02T17:02:37.658Z,18.60
2022-11-02T17:05:15.426Z,18.40
2022-11-02T17:07:48.244Z,18.40
2022-11-02T17:10:22.520Z,18.30
2022-11-02T17:12:52.582Z,17.90
2022-11-02T17:15:24.234Z,18.30
2022-11-02T17:18:24.614Z,18.50
2022-11-02T17:21:28.295Z,18.10
2022-11-02T17:23:59.399Z,18.20
2022-11-02T17:26:37.577Z,18.20
2022-11-02T17:29:35.207Z,18.30
2022-11-02T17:32:05.337Z,18.10
2022-11-02T17:34:35.698Z,17.60
2022-11-02T17:37:04.030Z,17.70
2022-11-02T17:39:34.629Z,17.50
2022-11-02T17:42:20.480Z,17.70
2022-11-02T17:44:50.079Z,17.60
2022-11-02T17:47:20.561Z,16.40
2022-11-02T17:49:48.759Z,16.10
2022-11-02T17:52:17.380Z,16.50
2022-11-02T17:54:45.560Z,16.90
2022-11-02T17:57:15.848Z,16.40
2022-11-02T17:59:44.259Z,15.60
2022-11-02T18:02:16.017Z,16.10
2022-11-02T18:04:44.682Z,16.20
2022-11-02T18:07:13.016Z,16.30
2022-11-02T18:09:41.333Z,16.60
2022-11-02T18:12:13.294Z,16.30
2022-11-02T18:14:41.480Z,15.70
2022-11-02T18:17:09.961Z,15.60
2022-11-02T18:19:39.495Z,14.90
2022-11-02T18:22:07.677Z,15.60
2022-11-02T18:24:35.866Z,15.50
2022-11-02T18:27:04.160Z,15.70
2022-11-02T18:29:32.338Z,15.80
2022-11-02T18:32:00.494Z,15.40
2022-11-02T18:34:28.671Z,15.70
2022-11-02T18:36:58.203Z,15.90
2022-11-02T18:39:26.419Z,15.30
2022-11-02T18:41:54.590Z,15.50
2022-11-02T18:44:22.889Z,15.40
2022-11-02T18:46:51.055Z,16.10
2022-11-02T18:49:19.269Z,16.10
2022-11-02T18:51:47.697Z,16.50
2022-11-02T18:54:17.935Z,15.30
2022-11-02T18:56:46.519Z,16.30
2022-11-02T18:59:14.816Z,15.90
2022-11-02T19:01:43.106Z,15.90
2022-11-02T19:04:17.216Z,17.00
2022-11-02T19:07:03.910Z,16.70
2022-11-02T19:09:33.574Z,16.80
2022-11-02T19:12:08.751Z,16.90
2022-11-02T19:14:39.837Z,16.30
2022-11-02T19:17:10.065Z,17.10
2022-11-02T19:19:40.809Z,17.60
2022-11-02T19:22:11.014Z,16.80
2022-11-02T19:24:40.864Z,16.80
2022-11-02T19:27:13.079Z,15.90
2022-11-02T19:29:41.305Z,15.50
2022-11-02T19:32:10.097Z,15.40
2022-11-02T19:34:38.764Z,15.30
2022-11-02T19:37:08.941Z,15.00
2022-11-02T19:39:37.524Z,15.20
2022-11-02T19:42:07.768Z,15.50
2022-11-02T19:44:41.288Z,15.00
2022-11-02T19:47:11.071Z,14.80
2022-11-02T19:49:39.412Z,15.30
2022-11-02T19:52:07.633Z,15.60
2022-11-02T19:54:35.790Z,15.80
2022-11-02T19:57:03.999Z,14.80
2022-11-02T19:59:34.088Z,14.90
2022-11-02T20:02:02.353Z,14.40
2022-11-02T20:04:30.572Z,13.50
2022-11-02T20:06:59.535Z,14.40
2022-11-02T20:09:27.738Z,14.60
2022-11-02T20:11:55.927Z,14.60
2022-11-02T20:14:24.409Z,14.20
2022-11-02T20:17:04.508Z,14.40
2022-11-02T20:19:42.581Z,14.20
2022-11-02T20:22:10.784Z,14.80
2022-11-02T20:24:38.982Z,14.60
2022-11-02T20:27:08.108Z,14.80
2022-11-02T20:29:36.289Z,15.10
2022-11-02T20:32:10.143Z,14.80
2022-11-02T20:34:38.376Z,14.60
2022-11-02T20:37:07.484Z,15.10
2022-11-02T20:39:35.686Z,15.10
2022-11-02T20:42:03.917Z,15.40
2022-11-02T20:44:32.086Z,15.00
2022-11-02T20:47:00.248Z,14.60
2022-11-02T20:49:49.263Z,14.90
2022-11-02T20:52:18.666Z,14.90
2022-11-02T20:54:46.838Z,14.70
2022-11-02T20:57:15.040Z,14.50
2022-11-02T20:59:43.200Z,15.10
2022-11-02T21:02:12.427Z,14.40
2022-11-02T21:04:42.119Z,15.00
2022-11-02T21:07:10.366Z,13.90
2022-11-02T21:09:38.539Z,14.00
2022-11-02T21:12:33.227Z,13.80
2022-11-02T21:15:02.329Z,14.90
2022-11-02T21:17:30.516Z,14.00
2022-11-02T21:20:14.120Z,14.50
2022-11-02T21:22:51.192Z,14.40
2022-11-02T21:25:19.495Z,15.40
2022-11-02T21:27:50.859Z,15.30
2022-11-02T21:30:19.514Z,14.60
2022-11-02T21:32:47.737Z,13.90
2022-11-02T21:35:17.466Z,14.70
2022-11-02T21:37:45.665Z,14.40
2022-11-02T21:40:14.996Z,14.50
2022-11-02T21:42:43.190Z,14.20
2022-11-02T21:45:16.518Z,14.10
2022-11-02T21:47:46.234Z,14.40
2022-11-02T21:50:15.865Z,14.10
2022-11-02T21:52:45.274Z,13.90
2022-11-02T21:55:13.631Z,14.40
2022-11-02T21:57:41.788Z,13.70
2022-11-02T22:00:11.614Z,14.30
2022-11-02T22:02:38.849Z,14.40
2022-11-02T22:05:07.769Z,13.60
2022-11-02T22:07:57.291Z,14.10
2022-11-02T22:10:25.471Z,14.40
2022-11-02T22:13:07.779Z,15.10
2022-11-02T22:15:38.398Z,15.90
2022-11-02T22:18:06.910Z,14.70
2022-11-02T22:20:35.082Z,14.70
2022-11-02T22:23:05.002Z,14.80
2022-11-02T22:25:33.385Z,14.40
2022-11-02T22:28:01.594Z,13.90
2022-11-02T22:30:29.900Z,14.20
2022-11-02T22:32:58.099Z,13.60
2022-11-02T22:35:26.232Z,13.60
2022-11-02T22:38:12.109Z,13.10
2022-11-02T22:40:41.679Z,13.70
2022-11-02T22:43:11.083Z,13.90
2022-11-02T22:45:39.217Z,13.60
2022-11-02T22:48:07.682Z,13.40
2022-11-02T22:50:35.912Z,14.10
2022-11-02T22:53:04.524Z,14.10
2022-11-02T22:55:32.880Z,13.50
2022-11-02T22:58:02.419Z,13.80
2022-11-02T23:00:30.597Z,14.20
2022-11-02T23:02:58.825Z,14.30
2022-11-02T23:05:27.007Z,14.60
2022-11-02T23:07:55.218Z,14.20
2022-11-02T23:10:48.147Z,13.90
2022-11-02T23:13:20.103Z,13.50
2022-11-02T23:15:48.272Z,13.10
2022-11-02T23:18:16.527Z,13.10
2022-11-02T23:20:51.442Z,14.10
2022-11-02T23:23:36.981Z,13.80
2022-11-02T23:26:05.247Z,13.40
2022-11-02T23:28:52.157Z,13.60
2022-11-02T23:31:38.016Z,13.90
2022-11-02T23:34:06.230Z,13.50
2022-11-02T23:36:33.757Z,13.30
2022-11-02T23:39:19.400Z,13.00
2022-11-02T23:41:47.575Z,13.20
2022-11-02T23:44:19.019Z,13.30
2022-11-02T23:46:49.533Z,13.40
2022-11-02T23:49:19.329Z,14.20
2022-11-02T23:52:05.230Z,14.50
2022-11-02T23:54:51.087Z,14.60
2022-11-02T23:57:21.002Z,13.50
2022-11-02T23:59:51.055Z,13.00
